This is the latest recevied weather packets stored in our database for station/object DM4XI-13. If no packets are shown the sender has not sent any weather packets the latest 10 day(s).
| Time | Temp. | Humidity | Pressure | Rain* | Wind** | Luminosity | Snow |
|---|---|---|---|---|---|---|---|
| 1777860454 | 15.56° C | 54% | 1012.3 hPa | 0 mm | 0.89 m/s, 305° | 0 W/m² | - |
| 1777860393 | 15.56° C | 54% | 1012.2 hPa | 0 mm | 1.79 m/s, 314° | 0 W/m² | - |
| 1777860332 | 16.11° C | 54% | 1012.3 hPa | 0 mm | 1.34 m/s, 308° | 0 W/m² | - |
| 1777860272 | 16.11° C | 54% | 1012.3 hPa | 0 mm | 0.45 m/s, 222° | 0 W/m² | - |
| 1777860211 | 16.11° C | 54% | 1012.2 hPa | 0 mm | 1.79 m/s, 284° | 0 W/m² | - |
| 1777860150 | 16.11° C | 54% | 1012.3 hPa | 0 mm | 1.34 m/s, 259° | 0 W/m² | - |
| 1777860089 | 16.11° C | 54% | 1012.3 hPa | 0 mm | 2.24 m/s, 285° | 0 W/m² | - |
| 1777859967 | 16.11° C | 54% | 1012.4 hPa | 0 mm | 0.89 m/s, 309° | 0 W/m² | - |
| 1777859906 | 16.11° C | 54% | 1012.2 hPa | 0 mm | 1.79 m/s, 281° | 0 W/m² | - |
| 1777859845 | 16.11° C | 54% | 1012.5 hPa | 0 mm | 0 m/s | 0 W/m² | - |
| 1777859784 | 16.11° C | 54% | 1012.4 hPa | 0 mm | 0.45 m/s, 217° | 0 W/m² | - |
| 1777859723 | 16.11° C | 54% | 1012.3 hPa | 0 mm | 0.89 m/s, 299° | 0 W/m² | - |
| 1777859662 | 16.11° C | 53% | 1012.1 hPa | 0 mm | 0.89 m/s, 257° | 0 W/m² | - |
| 1777859600 | 16.11° C | 53% | 1012.2 hPa | 0 mm | 0.89 m/s, 253° | 0 W/m² | - |
| 1777859540 | 16.11° C | 54% | 1012.1 hPa | 0 mm | 1.34 m/s, 314° | 0 W/m² | - |
| 1777859479 | 16.11° C | 54% | 1012.1 hPa | 0 mm | 2.24 m/s, 293° | 0 W/m² | - |
| 1777859418 | 16.11° C | 54% | 1012 hPa | 0 mm | 1.79 m/s, 327° | 0 W/m² | - |
| 1777859357 | 16.11° C | 54% | 1012 hPa | 0 mm | 2.68 m/s, 303° | 0 W/m² | - |
| 1777859296 | 16.11° C | 54% | 1012.2 hPa | 0 mm | 1.34 m/s, 266° | 0 W/m² | - |
| 1777859235 | 16.11° C | 54% | 1012.2 hPa | 0 mm | 1.34 m/s, 334° | 0 W/m² | - |
| 1777859174 | 16.11° C | 54% | 1011.9 hPa | 0 mm | 2.24 m/s, 319° | 0 W/m² | - |
| 1777859113 | 16.11° C | 54% | 1012 hPa | 0 mm | 3.13 m/s, 290° | 0 W/m² | - |
| 1777859051 | 16.11° C | 55% | 1012.1 hPa | 0 mm | 1.79 m/s, 300° | 0 W/m² | - |
| 1777858990 | 16.11° C | 55% | 1012.1 hPa | 0 mm | 1.79 m/s, 299° | 0 W/m² | - |
| 1777858930 | 16.11° C | 54% | 1012.2 hPa | 0 mm | 2.24 m/s, 255° | 0 W/m² | - |
* Rain latest hour (hover to see other rain measurements)
** Current wind speed in m/s (hover to see current wind gust speed)